Aérodrome :
LOGIN :

S'inscrire | Disclaimer

   EN    FR    IT 

 










Légende :    VFR   VFR Marginal   IFR   IFR Intensif   IFR Très Intensif
Visi : 
Plafond : 
>= 8 km
>= 3000ft
5 à 8 km
1000 à 3000 ft
1500m à 5 km
500 à 1000 ft
800 à 1500m
200 à 500 ft
< 800m
< 200 ft
Symboles :   Orages  Brouillard  Fortes neiges  Fortes précipitations  Vent > 20 kt
SIGMETs :   Divers  Orages  Givrage  Turbulence  Onde Orograph.  Cendres Volcan.






- Altitude de l'aérodrome : 170 ft
- Code IATA : KRP


EKKA - Karup

DERNIER METAR :
  • 060851Z 27020KT 9999 SCT015 FEW022CB 14/11 Q1000 TEMPO 24015G25KT 4000 SHRA BKN020CB

METARs EXPIRÉS :
  • 060820Z 26015KT 9999 SCT015 FEW020TCU 13/11 Q0999 TEMPO 24015G25KT 4000 SHRA SCT015 BKN020CB
  • 060750Z 26015KT 230V290 9999 -SHRA SCT015 FEW020CB 12/11 Q0999 TEMPO 24015G25KT 4000 SHRA SCT015 BKN020CB
  • 060744Z 25015KT 7000 SHRA SCT015 SCT020CB 13/10 Q0999 TEMPO 24015G25KT 4000 SHRA BKN015CB
  • 060720Z 24014KT 9999 SCT018 FEW020CB 14/11 Q0999 TEMPO 24015G25KT 4000 SHRA BKN015CB
  • 060651Z 24013KT 9999 SCT019 FEW020CB 13/11 Q0999 TEMPO 24015G25KT 4000 SHRA BKN015CB
  • 060621Z 24010KT 210V270 9999 FEW020CB SCT035 12/10 Q0998 TEMPO 24015G25KT 4000 SHRA BKN015CB

TAF TAF EKKA
Valide du 06 à 09h jusqu'au 07 à 09h UTC


060810Z 0609/0709 25018KT 9999 SCT020 SCT040
TEMPO 0609/0616 26018G35KT 4000 SHRA SCT012 BKN020CB
TEMPO 0616/0619 26018G35KT
BECMG 0619/0622 29015KT
TEMPO 0705/0709 5000 SHRA BKN020CB



MET'MAP, la Météo Aéronautique d'un coup d'oeil ! - Copyright ORBIFLY Décembre 2007 - Disclaimer

ORBIFLY MET'MAP TEAM :

Programmation & Développement : Alexandra Zaïnal
Sur une idée originale de : Baudouin d'Aumeries
Assistance à la programmation : Marc-Olivier Méhu
Soutien technique & logistique : Manuel Goepfert

Contact : metmap@orbifly.com




SOURCES & CREDITS :

   NOAA